Sunbury, NC (27979)

3:48 AM EDT on October 25, 2014 (GMT -0400)
CGFFARMS | Change Station
CLOSE
Current Station
Personal Weather Station
Location: Corapeake, NC
Elevation: 52 ft
Nearby Weather Stations

Elev 52 ft 36.52 °N, 76.59 °W | Updated 2 minutes ago

Clear
Clear
48.6 °F
Feels Like 47 °F
N
4.7
Wind Variable Wind from NNW

Today
High -- | Low -- °F
--% Chance of Precip.
Yesterday
High -- | Low -- °F
Precip. -- in
7:22 AM 6:17 PM
New Moon, 2% visible
Pressure 29.96 in
Visibility 0.5 miles
Clouds Mostly Cloudy 100 ft
Windchill 47 °F
Dew Point 47 °F
Humidity 93%
Rainfall 0.00 in
Snow Depth Not available.
UV 0 out of 12
Pollen 1.90 out of 12
Air Quality Not available.
Flu Activity Local Activity
METAR KCPK 250735Z AUTO 00000KT 1/2SM FG BKN001 05/05 A2996 RMK AO2

More Conditions Fewer Conditions

Pressure 29.96 in
Visibility 0.5 miles
Clouds Mostly Cloudy 100 ft
Windchill 47 °F
Dew Point 47 °F
Humidity 93%
Rainfall 0.00 in
Snow Depth Not available.
UV 0 out of 12
Pollen 1.90 out of 12
Air Quality Not available.
Flu Activity Local Activity
METAR KCPK 250735Z AUTO 00000KT 1/2SM FG BKN001 05/05 A2996 RMK AO2

More Conditions Fewer Conditions

10-Day Weather Forecast

Almanac

Astronomy

Oct. 25, 2014 Rise Set
Actual Time 7:22 AM EDT 6:17 PM EDT
Civil Twilight 6:56 AM EDT 6:43 PM EDT
Nautical Twilight 6:26 AM EDT 7:13 PM EDT
Astronomical Twilight 5:56 AM EDT 7:43 PM EDT
Moon 8:57 AM EDT 7:41 PM EDT
Length of Visible Light 11h 47m
Length of Day
10h 54m
Tomorrow will be 2m 7s shorter.
New Moon, 2% of the Moon is Illuminated
Today
New Moon
Oct 30
First Quarter
Nov 6
Full
Nov 14
Last Quarter
Nov 22
New

Today's Extremes

State Highs State Lows

Community

WunderPhotos

Upload Photos

1,764,791 photos uploaded!

Nearby

Snow Depth

Station Depth Elevation
No new snow has been reported.

Earthquake Activity

City Distance Mag. Time & Date
No recent earthquake activity has been reported nearby.
Minimum magnitude displayed is 2.5.

Coastal Water Temperatures

Place Temperature
Oregon Inlet Marina, NC 64.0 °F
Duck Pier, NC 64.9 °F
Hatteras, NC 64.9 °F
Money Point, VA 64.9 °F
Sewells Point, VA 63.0 °F
Chesapeake Bay Bridge Tunnel, VA 64.0 °F

Nearby Weather Stations